sensor_id;sensor_type;location;lat;lon;timestamp;P1;durP1;ratioP1;P2;durP2;ratioP2
8331;SDS011;4203;48.144;14.118;2024-03-17T02:22:53;3.88;;;3.58;;
8331;SDS011;4203;48.144;14.118;2024-03-17T02:25:37;4.50;;;3.20;;
8331;SDS011;4203;48.144;14.118;2024-03-17T02:28:29;3.75;;;3.45;;
8331;SDS011;4203;48.144;14.118;2024-03-17T02:31:08;3.70;;;3.40;;
8331;SDS011;4203;48.144;14.118;2024-03-17T02:34:03;3.90;;;3.47;;
8331;SDS011;4203;48.144;14.118;2024-03-17T02:36:40;3.87;;;3.57;;
8331;SDS011;4203;48.144;14.118;2024-03-17T02:42:19;4.75;;;3.80;;
8331;SDS011;4203;48.144;14.118;2024-03-17T02:44:54;4.57;;;3.93;;
8331;SDS011;4203;48.144;14.118;2024-03-17T02:47:42;5.20;;;3.53;;
8331;SDS011;4203;48.144;14.118;2024-03-17T02:50:31;3.72;;;3.42;;
8331;SDS011;4203;48.144;14.118;2024-03-17T02:53:17;5.65;;;3.88;;
8331;SDS011;4203;48.144;14.118;2024-03-17T03:06:38;6.23;;;4.73;;
8331;SDS011;4203;48.144;14.118;2024-03-17T03:09:41;6.67;;;4.57;;
8331;SDS011;4203;48.144;14.118;2024-03-17T03:36:42;5.00;;;4.50;;
8331;SDS011;4203;48.144;14.118;2024-03-17T03:39:53;7.57;;;5.33;;
8331;SDS011;4203;48.144;14.118;2024-03-17T03:49:20;5.20;;;4.70;;
8331;SDS011;4203;48.144;14.118;2024-03-17T03:58:46;7.60;;;5.53;;
8331;SDS011;4203;48.144;14.118;2024-03-17T04:01:58;9.93;;;5.23;;
8331;SDS011;4203;48.144;14.118;2024-03-17T04:05:17;7.47;;;5.27;;
8331;SDS011;4203;48.144;14.118;2024-03-17T04:15:00;5.88;;;5.00;;
8331;SDS011;4203;48.144;14.118;2024-03-17T04:18:24;5.90;;;5.23;;
8331;SDS011;4203;48.144;14.118;2024-03-17T04:21:28;5.82;;;5.13;;
8331;SDS011;4203;48.144;14.118;2024-03-17T04:24:37;6.30;;;5.23;;
8331;SDS011;4203;48.144;14.118;2024-03-17T04:27:50;5.95;;;4.55;;
8331;SDS011;4203;48.144;14.118;2024-03-17T04:34:51;5.77;;;5.00;;
8331;SDS011;4203;48.144;14.118;2024-03-17T04:37:39;5.63;;;4.93;;
8331;SDS011;4203;48.144;14.118;2024-03-17T04:40:23;5.82;;;4.82;;
8331;SDS011;4203;48.144;14.118;2024-03-17T04:46:34;6.33;;;4.97;;
8331;SDS011;4203;48.144;14.118;2024-03-17T04:49:17;6.13;;;5.10;;
8331;SDS011;4203;48.144;14.118;2024-03-17T04:59:26;7.88;;;6.10;;
8331;SDS011;4203;48.144;14.118;2024-03-17T05:02:32;6.17;;;5.37;;
8331;SDS011;4203;48.144;14.118;2024-03-17T05:05:42;8.30;;;5.97;;
8331;SDS011;4203;48.144;14.118;2024-03-17T05:22:13;7.00;;;5.43;;
8331;SDS011;4203;48.144;14.118;2024-03-17T05:24:50;6.53;;;4.70;;
8331;SDS011;4203;48.144;14.118;2024-03-17T05:27:46;6.80;;;5.40;;
8331;SDS011;4203;48.144;14.118;2024-03-17T05:30:41;6.38;;;5.78;;
8331;SDS011;4203;48.144;14.118;2024-03-17T05:33:52;6.82;;;5.40;;
8331;SDS011;4203;48.144;14.118;2024-03-17T05:43:50;7.80;;;5.60;;
8331;SDS011;4203;48.144;14.118;2024-03-17T05:49:39;6.40;;;5.50;;
8331;SDS011;4203;48.144;14.118;2024-03-17T05:52:37;6.68;;;5.78;;
8331;SDS011;4203;48.144;14.118;2024-03-17T05:55:28;5.82;;;5.22;;
8331;SDS011;4203;48.144;14.118;2024-03-17T06:08:16;6.65;;;5.22;;
8331;SDS011;4203;48.144;14.118;2024-03-17T06:10:50;6.13;;;5.40;;
8331;SDS011;4203;48.144;14.118;2024-03-17T06:13:31;7.13;;;4.95;;
8331;SDS011;4203;48.144;14.118;2024-03-17T06:16:27;8.25;;;5.47;;
8331;SDS011;4203;48.144;14.118;2024-03-17T06:19:33;7.20;;;5.65;;
8331;SDS011;4203;48.144;14.118;2024-03-17T06:28:38;5.55;;;5.05;;
8331;SDS011;4203;48.144;14.118;2024-03-17T06:31:45;6.82;;;5.88;;
8331;SDS011;4203;48.144;14.118;2024-03-17T06:35:00;5.78;;;5.28;;
8331;SDS011;4203;48.144;14.118;2024-03-17T06:38:08;7.68;;;6.13;;
8331;SDS011;4203;48.144;14.118;2024-03-17T06:44:47;9.07;;;5.82;;
8331;SDS011;4203;48.144;14.118;2024-03-17T06:47:23;8.20;;;7.07;;
8331;SDS011;4203;48.144;14.118;2024-03-17T06:50:29;6.32;;;5.60;;
8331;SDS011;4203;48.144;14.118;2024-03-17T06:56:42;10.02;;;6.85;;
8331;SDS011;4203;48.144;14.118;2024-03-17T06:59:42;7.43;;;5.80;;
8331;SDS011;4203;48.144;14.118;2024-03-17T07:02:27;7.70;;;6.18;;
8331;SDS011;4203;48.144;14.118;2024-03-17T07:08:45;10.57;;;6.45;;
8331;SDS011;4203;48.144;14.118;2024-03-17T07:12:14;8.27;;;6.68;;
8331;SDS011;4203;48.144;14.118;2024-03-17T07:21:42;7.22;;;6.50;;
8331;SDS011;4203;48.144;14.118;2024-03-17T07:24:25;9.35;;;6.43;;
8331;SDS011;4203;48.144;14.118;2024-03-17T07:34:45;7.13;;;5.57;;
8331;SDS011;4203;48.144;14.118;2024-03-17T07:40:58;7.95;;;7.07;;
8331;SDS011;4203;48.144;14.118;2024-03-17T07:43:44;9.27;;;7.63;;
8331;SDS011;4203;48.144;14.118;2024-03-17T07:46:49;7.75;;;6.85;;
8331;SDS011;4203;48.144;14.118;2024-03-17T07:49:38;9.80;;;7.30;;
8331;SDS011;4203;48.144;14.118;2024-03-17T07:52:26;9.57;;;6.60;;
8331;SDS011;4203;48.144;14.118;2024-03-17T07:55:13;7.38;;;6.43;;
8331;SDS011;4203;48.144;14.118;2024-03-17T07:58:15;9.52;;;7.10;;
8331;SDS011;4203;48.144;14.118;2024-03-17T08:01:25;7.40;;;6.65;;
8331;SDS011;4203;48.144;14.118;2024-03-17T08:04:15;7.38;;;6.53;;
8331;SDS011;4203;48.144;14.118;2024-03-17T08:17:17;7.15;;;6.45;;
8331;SDS011;4203;48.144;14.118;2024-03-17T08:20:55;7.15;;;6.45;;
8331;SDS011;4203;48.144;14.118;2024-03-17T09:03:35;5.18;;;4.68;;
8331;SDS011;4203;48.144;14.118;2024-03-17T09:06:10;5.80;;;5.13;;
8331;SDS011;4203;48.144;14.118;2024-03-17T09:08:41;5.93;;;5.20;;
8331;SDS011;4203;48.144;14.118;2024-03-17T09:11:11;5.07;;;4.57;;
8331;SDS011;4203;48.144;14.118;2024-03-17T09:13:39;5.28;;;4.53;;
8331;SDS011;4203;48.144;14.118;2024-03-17T09:16:06;4.95;;;4.50;;
8331;SDS011;4203;48.144;14.118;2024-03-17T09:18:37;5.97;;;4.75;;
8331;SDS011;4203;48.144;14.118;2024-03-17T09:27:50;6.57;;;4.80;;
8331;SDS011;4203;48.144;14.118;2024-03-17T09:30:18;5.93;;;5.30;;
8331;SDS011;4203;48.144;14.118;2024-03-17T09:32:45;4.80;;;4.38;;
8331;SDS011;4203;48.144;14.118;2024-03-17T09:35:14;4.93;;;4.43;;
8331;SDS011;4203;48.144;14.118;2024-03-17T09:37:41;4.78;;;4.40;;
8331;SDS011;4203;48.144;14.118;2024-03-17T09:40:11;4.65;;;3.95;;
8331;SDS011;4203;48.144;14.118;2024-03-17T09:42:41;4.60;;;4.20;;
8331;SDS011;4203;48.144;14.118;2024-03-17T09:45:09;5.30;;;4.90;;
8331;SDS011;4203;48.144;14.118;2024-03-17T09:47:37;4.70;;;4.20;;
8331;SDS011;4203;48.144;14.118;2024-03-17T09:50:07;4.65;;;4.20;;
8331;SDS011;4203;48.144;14.118;2024-03-17T09:52:42;5.38;;;4.13;;
8331;SDS011;4203;48.144;14.118;2024-03-17T09:55:13;4.68;;;4.07;;
8331;SDS011;4203;48.144;14.118;2024-03-17T09:57:43;4.50;;;4.10;;
8331;SDS011;4203;48.144;14.118;2024-03-17T10:00:13;4.00;;;3.63;;
8331;SDS011;4203;48.144;14.118;2024-03-17T10:02:41;4.50;;;3.65;;
8331;SDS011;4203;48.144;14.118;2024-03-17T10:05:21;8.20;;;4.25;;
8331;SDS011;4203;48.144;14.118;2024-03-17T10:07:49;6.03;;;4.78;;
8331;SDS011;4203;48.144;14.118;2024-03-17T10:10:17;5.47;;;4.93;;
8331;SDS011;4203;48.144;14.118;2024-03-17T10:23:15;4.82;;;4.38;;
8331;SDS011;4203;48.144;14.118;2024-03-17T10:25:44;4.65;;;4.20;;
8331;SDS011;4203;48.144;14.118;2024-03-17T10:28:12;4.05;;;3.72;;
8331;SDS011;4203;48.144;14.118;2024-03-17T10:30:40;4.80;;;4.40;;
8331;SDS011;4203;48.144;14.118;2024-03-17T10:33:20;7.50;;;4.82;;
8331;SDS011;4203;48.144;14.118;2024-03-17T10:35:57;4.10;;;3.80;;
8331;SDS011;4203;48.144;14.118;2024-03-17T10:38:28;4.03;;;3.72;;
8331;SDS011;4203;48.144;14.118;2024-03-17T10:40:55;4.82;;;3.88;;
8331;SDS011;4203;48.144;14.118;2024-03-17T10:43:23;4.78;;;3.85;;
8331;SDS011;4203;48.144;14.118;2024-03-17T10:45:51;3.95;;;3.65;;
8331;SDS011;4203;48.144;14.118;2024-03-17T10:48:20;4.00;;;3.50;;
8331;SDS011;4203;48.144;14.118;2024-03-17T10:50:52;4.72;;;3.75;;
8331;SDS011;4203;48.144;14.118;2024-03-17T10:53:23;3.92;;;3.63;;
8331;SDS011;4203;48.144;14.118;2024-03-17T10:55:56;4.30;;;3.95;;
8331;SDS011;4203;48.144;14.118;2024-03-17T10:58:33;4.15;;;3.50;;
8331;SDS011;4203;48.144;14.118;2024-03-17T11:01:02;3.80;;;3.50;;
8331;SDS011;4203;48.144;14.118;2024-03-17T11:03:33;3.60;;;3.40;;
8331;SDS011;4203;48.144;14.118;2024-03-17T11:06:02;3.53;;;3.20;;
8331;SDS011;4203;48.144;14.118;2024-03-17T11:08:31;3.78;;;3.42;;
8331;SDS011;4203;48.144;14.118;2024-03-17T11:11:01;5.05;;;3.63;;
8331;SDS011;4203;48.144;14.118;2024-03-17T11:13:29;3.95;;;3.65;;
8331;SDS011;4203;48.144;14.118;2024-03-17T11:15:57;3.30;;;3.10;;
8331;SDS011;4203;48.144;14.118;2024-03-17T11:18:38;3.53;;;3.22;;
8331;SDS011;4203;48.144;14.118;2024-03-17T11:21:06;3.42;;;3.22;;
8331;SDS011;4203;48.144;14.118;2024-03-17T11:23:54;4.82;;;3.47;;
8331;SDS011;4203;48.144;14.118;2024-03-17T11:26:28;3.60;;;3.35;;
8331;SDS011;4203;48.144;14.118;2024-03-17T11:28:57;3.78;;;3.45;;
8331;SDS011;4203;48.144;14.118;2024-03-17T11:31:44;3.78;;;3.47;;
8331;SDS011;4203;48.144;14.118;2024-03-17T11:34:30;3.42;;;3.22;;
8331;SDS011;4203;48.144;14.118;2024-03-17T11:37:02;3.80;;;3.50;;
8331;SDS011;4203;48.144;14.118;2024-03-17T11:42:17;3.55;;;3.25;;
8331;SDS011;4203;48.144;14.118;2024-03-17T11:44:55;3.50;;;3.20;;
8331;SDS011;4203;48.144;14.118;2024-03-17T11:50:08;3.92;;;2.90;;
8331;SDS011;4203;48.144;14.118;2024-03-17T11:52:36;4.18;;;3.20;;
8331;SDS011;4203;48.144;14.118;2024-03-17T11:55:06;3.20;;;3.00;;
8331;SDS011;4203;48.144;14.118;2024-03-17T11:57:42;3.67;;;3.15;;
8331;SDS011;4203;48.144;14.118;2024-03-17T12:00:18;3.75;;;3.20;;
8331;SDS011;4203;48.144;14.118;2024-03-17T12:02:47;2.75;;;2.55;;
8331;SDS011;4203;48.144;14.118;2024-03-17T12:05:15;2.60;;;2.40;;
8331;SDS011;4203;48.144;14.118;2024-03-17T12:07:42;2.90;;;2.70;;
8331;SDS011;4203;48.144;14.118;2024-03-17T12:10:09;2.88;;;2.67;;
8331;SDS011;4203;48.144;14.118;2024-03-17T12:12:38;3.30;;;3.10;;
8331;SDS011;4203;48.144;14.118;2024-03-17T12:15:15;3.35;;;3.05;;
8331;SDS011;4203;48.144;14.118;2024-03-17T12:17:42;3.75;;;3.45;;
8331;SDS011;4203;48.144;14.118;2024-03-17T12:20:16;3.00;;;2.80;;
8331;SDS011;4203;48.144;14.118;2024-03-17T12:22:43;3.00;;;2.80;;
8331;SDS011;4203;48.144;14.118;2024-03-17T12:25:16;3.22;;;2.95;;
8331;SDS011;4203;48.144;14.118;2024-03-17T12:27:43;3.08;;;2.88;;
8331;SDS011;4203;48.144;14.118;2024-03-17T12:30:13;3.03;;;2.83;;
8331;SDS011;4203;48.144;14.118;2024-03-17T12:32:40;3.63;;;3.20;;
8331;SDS011;4203;48.144;14.118;2024-03-17T12:35:12;2.95;;;2.72;;
8331;SDS011;4203;48.144;14.118;2024-03-17T12:37:40;4.05;;;3.20;;
8331;SDS011;4203;48.144;14.118;2024-03-17T12:40:19;3.65;;;2.60;;
8331;SDS011;4203;48.144;14.118;2024-03-17T12:42:48;3.05;;;2.60;;
8331;SDS011;4203;48.144;14.118;2024-03-17T12:45:20;2.70;;;2.50;;
8331;SDS011;4203;48.144;14.118;2024-03-17T12:47:48;2.50;;;2.30;;
8331;SDS011;4203;48.144;14.118;2024-03-17T12:50:15;2.83;;;2.60;;
8331;SDS011;4203;48.144;14.118;2024-03-17T12:52:51;2.97;;;2.70;;
8331;SDS011;4203;48.144;14.118;2024-03-17T12:55:19;2.85;;;2.65;;
8331;SDS011;4203;48.144;14.118;2024-03-17T12:58:06;3.45;;;2.85;;
8331;SDS011;4203;48.144;14.118;2024-03-17T13:00:58;2.90;;;2.70;;
8331;SDS011;4203;48.144;14.118;2024-03-17T13:03:26;3.25;;;2.85;;
8331;SDS011;4203;48.144;14.118;2024-03-17T13:05:54;3.30;;;3.10;;
8331;SDS011;4203;48.144;14.118;2024-03-17T13:08:21;3.25;;;2.70;;
8331;SDS011;4203;48.144;14.118;2024-03-17T13:10:49;2.50;;;2.40;;
8331;SDS011;4203;48.144;14.118;2024-03-17T13:13:16;3.17;;;2.83;;
8331;SDS011;4203;48.144;14.118;2024-03-17T13:15:44;2.85;;;2.65;;
8331;SDS011;4203;48.144;14.118;2024-03-17T13:18:15;2.92;;;2.40;;
8331;SDS011;4203;48.144;14.118;2024-03-17T13:20:45;2.60;;;2.50;;
8331;SDS011;4203;48.144;14.118;2024-03-17T13:23:14;2.85;;;2.65;;
8331;SDS011;4203;48.144;14.118;2024-03-17T13:25:42;2.50;;;2.30;;
8331;SDS011;4203;48.144;14.118;2024-03-17T13:28:10;2.20;;;2.10;;
8331;SDS011;4203;48.144;14.118;2024-03-17T13:30:38;2.38;;;2.17;;
8331;SDS011;4203;48.144;14.118;2024-03-17T13:33:05;2.35;;;2.13;;
8331;SDS011;4203;48.144;14.118;2024-03-17T13:35:37;2.47;;;2.25;;
8331;SDS011;4203;48.144;14.118;2024-03-17T13:38:05;2.53;;;2.35;;
8331;SDS011;4203;48.144;14.118;2024-03-17T13:40:33;2.67;;;2.50;;
8331;SDS011;4203;48.144;14.118;2024-03-17T13:43:01;2.95;;;2.70;;
8331;SDS011;4203;48.144;14.118;2024-03-17T13:45:29;2.88;;;2.63;;
8331;SDS011;4203;48.144;14.118;2024-03-17T13:48:04;2.78;;;2.50;;
8331;SDS011;4203;48.144;14.118;2024-03-17T13:50:37;2.83;;;2.63;;
8331;SDS011;4203;48.144;14.118;2024-03-17T13:53:06;2.75;;;2.58;;
8331;SDS011;4203;48.144;14.118;2024-03-17T13:55:34;3.35;;;2.70;;
8331;SDS011;4203;48.144;14.118;2024-03-17T13:58:03;2.95;;;2.63;;
8331;SDS011;4203;48.144;14.118;2024-03-17T14:00:31;3.42;;;2.55;;
8331;SDS011;4203;48.144;14.118;2024-03-17T14:03:01;3.17;;;2.35;;
8331;SDS011;4203;48.144;14.118;2024-03-17T14:05:28;2.35;;;2.22;;
8331;SDS011;4203;48.144;14.118;2024-03-17T14:07:59;3.60;;;2.50;;
8331;SDS011;4203;48.144;14.118;2024-03-17T14:10:26;2.60;;;2.40;;
8331;SDS011;4203;48.144;14.118;2024-03-17T14:12:54;2.50;;;2.35;;
8331;SDS011;4203;48.144;14.118;2024-03-17T14:15:22;2.20;;;2.10;;
8331;SDS011;4203;48.144;14.118;2024-03-17T14:17:50;3.85;;;2.10;;
8331;SDS011;4203;48.144;14.118;2024-03-17T14:20:18;2.10;;;2.00;;
8331;SDS011;4203;48.144;14.118;2024-03-17T14:22:45;2.55;;;2.35;;
8331;SDS011;4203;48.144;14.118;2024-03-17T14:25:19;2.00;;;1.90;;
8331;SDS011;4203;48.144;14.118;2024-03-17T14:27:48;2.28;;;2.15;;
8331;SDS011;4203;48.144;14.118;2024-03-17T14:30:15;3.25;;;2.20;;
8331;SDS011;4203;48.144;14.118;2024-03-17T14:32:43;1.95;;;1.85;;
8331;SDS011;4203;48.144;14.118;2024-03-17T14:35:12;2.40;;;2.20;;
8331;SDS011;4203;48.144;14.118;2024-03-17T14:37:40;2.70;;;2.30;;
8331;SDS011;4203;48.144;14.118;2024-03-17T14:40:08;2.58;;;2.35;;
8331;SDS011;4203;48.144;14.118;2024-03-17T14:42:44;2.47;;;2.20;;
8331;SDS011;4203;48.144;14.118;2024-03-17T14:45:11;2.58;;;2.38;;
8331;SDS011;4203;48.144;14.118;2024-03-17T14:47:38;2.20;;;2.00;;
8331;SDS011;4203;48.144;14.118;2024-03-17T14:50:06;2.15;;;2.03;;
8331;SDS011;4203;48.144;14.118;2024-03-17T14:52:34;1.98;;;1.88;;
8331;SDS011;4203;48.144;14.118;2024-03-17T14:55:01;2.20;;;2.10;;
8331;SDS011;4203;48.144;14.118;2024-03-17T14:57:29;2.97;;;2.45;;
8331;SDS011;4203;48.144;14.118;2024-03-17T14:59:59;3.10;;;2.33;;
8331;SDS011;4203;48.144;14.118;2024-03-17T15:02:26;2.67;;;2.47;;
8331;SDS011;4203;48.144;14.118;2024-03-17T15:04:54;3.08;;;2.10;;
8331;SDS011;4203;48.144;14.118;2024-03-17T15:07:21;3.10;;;2.22;;
8331;SDS011;4203;48.144;14.118;2024-03-17T15:09:49;2.40;;;2.20;;
8331;SDS011;4203;48.144;14.118;2024-03-17T15:12:17;2.30;;;2.20;;
8331;SDS011;4203;48.144;14.118;2024-03-17T15:14:46;2.60;;;2.40;;
8331;SDS011;4203;48.144;14.118;2024-03-17T15:17:14;2.58;;;2.38;;
8331;SDS011;4203;48.144;14.118;2024-03-17T15:19:42;3.72;;;2.40;;
8331;SDS011;4203;48.144;14.118;2024-03-17T15:22:13;2.15;;;2.00;;
8331;SDS011;4203;48.144;14.118;2024-03-17T15:24:40;4.80;;;2.35;;
8331;SDS011;4203;48.144;14.118;2024-03-17T15:27:07;3.60;;;2.50;;
8331;SDS011;4203;48.144;14.118;2024-03-17T15:29:35;2.30;;;2.10;;
8331;SDS011;4203;48.144;14.118;2024-03-17T15:32:03;2.65;;;2.13;;
8331;SDS011;4203;48.144;14.118;2024-03-17T15:34:32;2.53;;;2.22;;
8331;SDS011;4203;48.144;14.118;2024-03-17T15:37:02;3.10;;;2.58;;
8331;SDS011;4203;48.144;14.118;2024-03-17T15:39:29;2.70;;;2.50;;
8331;SDS011;4203;48.144;14.118;2024-03-17T15:41:56;2.45;;;2.25;;
8331;SDS011;4203;48.144;14.118;2024-03-17T15:44:24;4.15;;;2.60;;
8331;SDS011;4203;48.144;14.118;2024-03-17T15:46:51;2.92;;;2.60;;
8331;SDS011;4203;48.144;14.118;2024-03-17T15:49:18;2.78;;;2.58;;
8331;SDS011;4203;48.144;14.118;2024-03-17T19:23:00;8.35;;;6.95;;
8331;SDS011;4203;48.144;14.118;2024-03-17T19:25:30;7.10;;;6.40;;
8331;SDS011;4203;48.144;14.118;2024-03-17T19:28:05;8.93;;;5.53;;
8331;SDS011;4203;48.144;14.118;2024-03-17T19:30:38;9.70;;;6.20;;
8331;SDS011;4203;48.144;14.118;2024-03-17T19:33:09;6.53;;;5.80;;
8331;SDS011;4203;48.144;14.118;2024-03-17T19:35:49;7.28;;;6.40;;
8331;SDS011;4203;48.144;14.118;2024-03-17T19:38:20;6.90;;;5.50;;
8331;SDS011;4203;48.144;14.118;2024-03-17T19:41:02;6.07;;;5.47;;
8331;SDS011;4203;48.144;14.118;2024-03-17T19:43:34;8.23;;;6.60;;
8331;SDS011;4203;48.144;14.118;2024-03-17T19:46:09;7.90;;;5.53;;
8331;SDS011;4203;48.144;14.118;2024-03-17T19:48:43;9.23;;;7.47;;
8331;SDS011;4203;48.144;14.118;2024-03-17T19:51:29;12.18;;;7.35;;
8331;SDS011;4203;48.144;14.118;2024-03-17T19:54:07;7.20;;;6.50;;
8331;SDS011;4203;48.144;14.118;2024-03-17T19:56:36;7.55;;;6.55;;
8331;SDS011;4203;48.144;14.118;2024-03-17T19:59:07;7.47;;;6.13;;
8331;SDS011;4203;48.144;14.118;2024-03-17T20:01:35;9.63;;;5.75;;
8331;SDS011;4203;48.144;14.118;2024-03-17T20:04:07;6.78;;;5.75;;
8331;SDS011;4203;48.144;14.118;2024-03-17T20:06:49;8.05;;;6.72;;
8331;SDS011;4203;48.144;14.118;2024-03-17T20:09:22;8.82;;;6.97;;
8331;SDS011;4203;48.144;14.118;2024-03-17T20:12:07;7.57;;;6.53;;
8331;SDS011;4203;48.144;14.118;2024-03-17T20:14:38;7.50;;;6.72;;
8331;SDS011;4203;48.144;14.118;2024-03-17T20:17:06;11.10;;;7.97;;
8331;SDS011;4203;48.144;14.118;2024-03-17T20:19:37;10.45;;;7.57;;
8331;SDS011;4203;48.144;14.118;2024-03-17T20:22:17;11.13;;;7.13;;
8331;SDS011;4203;48.144;14.118;2024-03-17T20:25:00;9.90;;;6.72;;
8331;SDS011;4203;48.144;14.118;2024-03-17T20:27:44;10.00;;;7.28;;
8331;SDS011;4203;48.144;14.118;2024-03-17T20:30:13;9.10;;;6.80;;
8331;SDS011;4203;48.144;14.118;2024-03-17T20:32:51;13.05;;;8.02;;
8331;SDS011;4203;48.144;14.118;2024-03-17T20:35:20;9.35;;;7.57;;
8331;SDS011;4203;48.144;14.118;2024-03-17T20:38:00;8.27;;;7.22;;
8331;SDS011;4203;48.144;14.118;2024-03-17T20:40:31;9.70;;;8.00;;
8331;SDS011;4203;48.144;14.118;2024-03-17T20:43:03;8.68;;;6.60;;
8331;SDS011;4203;48.144;14.118;2024-03-17T20:45:33;7.28;;;5.78;;
8331;SDS011;4203;48.144;14.118;2024-03-17T20:48:04;6.40;;;5.80;;
8331;SDS011;4203;48.144;14.118;2024-03-17T20:50:46;8.82;;;5.90;;
8331;SDS011;4203;48.144;14.118;2024-03-17T20:53:18;6.47;;;5.88;;
8331;SDS011;4203;48.144;14.118;2024-03-17T20:56:07;5.82;;;5.25;;
8331;SDS011;4203;48.144;14.118;2024-03-17T20:58:36;5.93;;;5.43;;
8331;SDS011;4203;48.144;14.118;2024-03-17T21:01:10;7.80;;;5.85;;
8331;SDS011;4203;48.144;14.118;2024-03-17T21:03:49;6.40;;;5.15;;
8331;SDS011;4203;48.144;14.118;2024-03-17T21:06:17;5.97;;;5.38;;
8331;SDS011;4203;48.144;14.118;2024-03-17T21:08:50;5.63;;;4.97;;
8331;SDS011;4203;48.144;14.118;2024-03-17T21:11:28;5.43;;;4.93;;
8331;SDS011;4203;48.144;14.118;2024-03-17T21:13:57;5.35;;;4.85;;
8331;SDS011;4203;48.144;14.118;2024-03-17T21:16:30;6.13;;;5.20;;
8331;SDS011;4203;48.144;14.118;2024-03-17T21:18:58;6.60;;;5.90;;
8331;SDS011;4203;48.144;14.118;2024-03-17T21:21:28;7.03;;;5.97;;
8331;SDS011;4203;48.144;14.118;2024-03-17T21:24:03;6.57;;;5.85;;
8331;SDS011;4203;48.144;14.118;2024-03-17T21:26:32;5.93;;;5.40;;
8331;SDS011;4203;48.144;14.118;2024-03-17T21:29:04;6.05;;;5.45;;
8331;SDS011;4203;48.144;14.118;2024-03-17T21:31:34;8.75;;;5.70;;
8331;SDS011;4203;48.144;14.118;2024-03-17T21:34:05;7.18;;;5.30;;
8331;SDS011;4203;48.144;14.118;2024-03-17T21:36:36;7.82;;;5.50;;
8331;SDS011;4203;48.144;14.118;2024-03-17T21:39:05;6.00;;;5.38;;
8331;SDS011;4203;48.144;14.118;2024-03-17T21:41:43;6.60;;;5.28;;
8331;SDS011;4203;48.144;14.118;2024-03-17T21:44:11;6.13;;;5.63;;
8331;SDS011;4203;48.144;14.118;2024-03-17T21:46:45;5.57;;;5.07;;
8331;SDS011;4203;48.144;14.118;2024-03-17T21:49:20;6.22;;;5.53;;
8331;SDS011;4203;48.144;14.118;2024-03-17T21:54:43;7.05;;;5.65;;
8331;SDS011;4203;48.144;14.118;2024-03-17T21:57:13;9.35;;;6.05;;
8331;SDS011;4203;48.144;14.118;2024-03-17T21:59:42;6.53;;;5.53;;
8331;SDS011;4203;48.144;14.118;2024-03-17T22:02:19;6.35;;;5.20;;
8331;SDS011;4203;48.144;14.118;2024-03-17T22:04:50;7.65;;;5.70;;
8331;SDS011;4203;48.144;14.118;2024-03-17T22:07:19;7.35;;;5.65;;
8331;SDS011;4203;48.144;14.118;2024-03-17T22:09:51;5.13;;;4.40;;
8331;SDS011;4203;48.144;14.118;2024-03-17T22:12:31;4.88;;;4.45;;
8331;SDS011;4203;48.144;14.118;2024-03-17T22:15:03;4.63;;;4.15;;
8331;SDS011;4203;48.144;14.118;2024-03-17T22:17:32;5.55;;;3.95;;
8331;SDS011;4203;48.144;14.118;2024-03-17T22:20:09;4.65;;;3.78;;
8331;SDS011;4203;48.144;14.118;2024-03-17T22:22:41;3.88;;;3.55;;
8331;SDS011;4203;48.144;14.118;2024-03-17T22:25:12;4.93;;;3.47;;
8331;SDS011;4203;48.144;14.118;2024-03-17T22:27:46;3.95;;;3.50;;
8331;SDS011;4203;48.144;14.118;2024-03-17T22:30:17;4.10;;;3.80;;
8331;SDS011;4203;48.144;14.118;2024-03-17T22:32:58;4.10;;;3.72;;
8331;SDS011;4203;48.144;14.118;2024-03-17T22:35:28;3.80;;;3.47;;
8331;SDS011;4203;48.144;14.118;2024-03-17T22:38:00;7.32;;;4.05;;
8331;SDS011;4203;48.144;14.118;2024-03-17T22:40:27;4.18;;;3.70;;
8331;SDS011;4203;48.144;14.118;2024-03-17T22:43:20;4.47;;;3.95;;
8331;SDS011;4203;48.144;14.118;2024-03-17T22:45:53;4.57;;;4.10;;
8331;SDS011;4203;48.144;14.118;2024-03-17T22:48:22;5.00;;;3.90;;
8331;SDS011;4203;48.144;14.118;2024-03-17T22:50:57;4.50;;;4.10;;
8331;SDS011;4203;48.144;14.118;2024-03-17T22:53:39;4.15;;;3.78;;
8331;SDS011;4203;48.144;14.118;2024-03-17T22:56:09;5.10;;;3.80;;
8331;SDS011;4203;48.144;14.118;2024-03-17T22:58:54;6.13;;;4.22;;
8331;SDS011;4203;48.144;14.118;2024-03-17T23:01:24;4.65;;;3.75;;
8331;SDS011;4203;48.144;14.118;2024-03-17T23:03:58;3.83;;;3.53;;
8331;SDS011;4203;48.144;14.118;2024-03-17T23:06:28;4.25;;;3.85;;
8331;SDS011;4203;48.144;14.118;2024-03-17T23:08:57;3.90;;;3.63;;
8331;SDS011;4203;48.144;14.118;2024-03-17T23:11:45;3.80;;;3.50;;
8331;SDS011;4203;48.144;14.118;2024-03-17T23:14:24;3.20;;;2.90;;
8331;SDS011;4203;48.144;14.118;2024-03-17T23:17:02;3.45;;;3.15;;
8331;SDS011;4203;48.144;14.118;2024-03-17T23:19:31;3.92;;;3.22;;
8331;SDS011;4203;48.144;14.118;2024-03-17T23:22:01;3.53;;;3.15;;
8331;SDS011;4203;48.144;14.118;2024-03-17T23:24:37;3.67;;;2.97;;
8331;SDS011;4203;48.144;14.118;2024-03-17T23:27:05;3.33;;;3.10;;
8331;SDS011;4203;48.144;14.118;2024-03-17T23:29:36;4.60;;;2.75;;
8331;SDS011;4203;48.144;14.118;2024-03-17T23:32:06;3.50;;;3.20;;
8331;SDS011;4203;48.144;14.118;2024-03-17T23:34:39;3.30;;;2.85;;
8331;SDS011;4203;48.144;14.118;2024-03-17T23:37:17;3.40;;;3.10;;
8331;SDS011;4203;48.144;14.118;2024-03-17T23:39:48;3.22;;;3.03;;
8331;SDS011;4203;48.144;14.118;2024-03-17T23:42:24;3.17;;;2.97;;
8331;SDS011;4203;48.144;14.118;2024-03-17T23:47:47;5.20;;;3.08;;
8331;SDS011;4203;48.144;14.118;2024-03-17T23:50:17;3.42;;;3.13;;
8331;SDS011;4203;48.144;14.118;2024-03-17T23:52:59;3.28;;;2.95;;
8331;SDS011;4203;48.144;14.118;2024-03-17T23:56:11;3.42;;;3.13;;
8331;SDS011;4203;48.144;14.118;2024-03-17T23:58:39;3.70;;;3.40;;
